createdAt,value
2022-11-01T00:02:12.097Z,98291.13
2022-11-01T00:04:39.896Z,98285.75
2022-11-01T00:07:07.550Z,98287.51
2022-11-01T00:09:35.096Z,98287.84
2022-11-01T00:12:03.027Z,98290.62
2022-11-01T00:14:30.561Z,98292.08
2022-11-01T00:16:58.081Z,98288.06
2022-11-01T00:19:25.635Z,98289.26
2022-11-01T00:21:53.559Z,98283.36
2022-11-01T00:24:21.210Z,98286.94
2022-11-01T00:29:17.393Z,98281.66
2022-11-01T00:31:45.136Z,98278.38
2022-11-01T00:34:12.674Z,98278.87
2022-11-01T00:36:40.092Z,98276.86
2022-11-01T00:39:07.750Z,98280.08
2022-11-01T00:41:35.610Z,98281.84
2022-11-01T00:44:03.389Z,98279.05
2022-11-01T00:46:32.153Z,98281.67
2022-11-01T00:48:59.854Z,98274.02
2022-11-01T00:51:27.566Z,98277.53
2022-11-01T00:53:54.948Z,98278.33
2022-11-01T00:56:22.490Z,98274.25
2022-11-01T00:58:49.903Z,98280.25
2022-11-01T01:01:17.890Z,98276.33
2022-11-01T01:03:45.672Z,98276.73
2022-11-01T01:06:13.412Z,98276.47
2022-11-01T01:08:40.764Z,98274.97
2022-11-01T01:11:08.252Z,98271.42
2022-11-01T01:13:35.745Z,98274.80
2022-11-01T01:16:12.269Z,98268.64
2022-11-01T01:18:40.477Z,98267.67
2022-11-01T01:21:08.493Z,98266.38
2022-11-01T01:23:36.738Z,98266.48
2022-11-01T01:26:09.195Z,98265.74
2022-11-01T01:28:41.871Z,98262.78
2022-11-01T01:31:09.424Z,98262.78
2022-11-01T01:33:36.992Z,98270.27
2022-11-01T01:36:07.260Z,98267.55
2022-11-01T01:38:34.832Z,98266.13
2022-11-01T01:41:21.500Z,98263.89
2022-11-01T01:43:49.192Z,98263.02
2022-11-01T01:46:16.573Z,98262.63
2022-11-01T01:48:48.137Z,98266.14
2022-11-01T01:51:19.846Z,98262.87
2022-11-01T01:53:53.918Z,98257.37
2022-11-01T01:56:35.433Z,98262.08
2022-11-01T01:59:09.532Z,98259.86
2022-11-01T02:01:40.334Z,98258.50
2022-11-01T02:04:16.394Z,98261.22
2022-11-01T02:06:44.271Z,98265.76
2022-11-01T02:09:12.489Z,98257.38
2022-11-01T02:11:40.010Z,98266.65
2022-11-01T02:14:07.964Z,98267.05
2022-11-01T02:17:08.572Z,98272.55
2022-11-01T02:19:41.991Z,98258.80
2022-11-01T02:22:26.576Z,98265.67
2022-11-01T02:25:37.311Z,98265.51
2022-11-01T02:28:34.727Z,98261.83
2022-11-01T02:31:59.328Z,98262.22
2022-11-01T02:34:32.222Z,98260.98
2022-11-01T02:37:14.317Z,98261.47
2022-11-01T02:39:47.232Z,98259.94
2022-11-01T02:42:22.855Z,98257.11
2022-11-01T02:45:08.191Z,98258.00
2022-11-01T02:47:38.475Z,98259.12
2022-11-01T02:50:09.422Z,98267.97
2022-11-01T02:52:40.348Z,98266.88
2022-11-01T02:55:33.623Z,98264.87
2022-11-01T02:58:08.738Z,98262.09
2022-11-01T03:00:37.119Z,98268.73
2022-11-01T03:03:30.851Z,98262.11
2022-11-01T03:06:09.649Z,98266.68
2022-11-01T03:09:00.419Z,98276.66
2022-11-01T03:11:43.772Z,98268.74
2022-11-01T03:14:31.651Z,98268.74
2022-11-01T03:17:11.872Z,98272.81
2022-11-01T03:20:03.365Z,98274.83
2022-11-01T03:22:44.008Z,98276.31
2022-11-01T03:25:45.766Z,98277.73
2022-11-01T03:28:39.580Z,98282.64
2022-11-01T03:31:22.022Z,98279.69
2022-11-01T03:34:00.161Z,98283.39
2022-11-01T03:36:41.661Z,98280.30
2022-11-01T03:39:17.166Z,98284.61
2022-11-01T03:41:49.479Z,98285.96
2022-11-01T03:44:18.089Z,98288.62
2022-11-01T03:46:46.459Z,98288.94
2022-11-01T03:49:19.231Z,98285.16
2022-11-01T03:51:47.791Z,98284.92
2022-11-01T03:54:15.070Z,98290.85
2022-11-01T03:56:42.678Z,98292.69
2022-11-01T03:59:10.691Z,98294.59
2022-11-01T04:01:38.258Z,98298.71
2022-11-01T04:04:05.861Z,98299.22
2022-11-01T04:06:33.153Z,98295.02
2022-11-01T04:09:00.517Z,98295.72
2022-11-01T04:11:28.246Z,98289.09
2022-11-01T04:13:57.441Z,98287.88
2022-11-01T04:16:43.423Z,98284.55
2022-11-01T04:19:29.238Z,98283.20
2022-11-01T04:21:56.856Z,98278.77
2022-11-01T04:24:24.462Z,98273.95
2022-11-01T04:26:51.980Z,98275.67
2022-11-01T04:29:19.626Z,98280.35
2022-11-01T04:31:47.068Z,98279.73
2022-11-01T04:34:16.663Z,98284.30
2022-11-01T04:36:44.136Z,98282.47
2022-11-01T04:39:11.964Z,98285.79
2022-11-01T04:41:39.254Z,98278.50
2022-11-01T04:44:06.660Z,98284.56
2022-11-01T04:46:33.919Z,98284.56
2022-11-01T04:49:01.393Z,98275.79
2022-11-01T04:51:28.840Z,98283.03
2022-11-01T04:53:56.375Z,98276.78
2022-11-01T04:56:23.679Z,98276.78
2022-11-01T04:58:51.075Z,98267.20
2022-11-01T05:01:18.863Z,98275.67
2022-11-01T05:03:50.132Z,98271.98
2022-11-01T05:06:17.707Z,98274.83
2022-11-01T05:08:45.144Z,98269.64
2022-11-01T05:11:12.673Z,98270.72
2022-11-01T05:13:40.233Z,98270.70
2022-11-01T05:16:19.790Z,98268.09
2022-11-01T05:18:39.005Z,98269.56
2022-11-01T05:21:06.250Z,98273.13
2022-11-01T05:23:33.634Z,98275.05
2022-11-01T05:26:01.183Z,98277.84
2022-11-01T05:28:28.731Z,98276.88
2022-11-01T05:30:58.457Z,98276.08
2022-11-01T05:33:26.028Z,98275.52
2022-11-01T05:35:53.625Z,98273.74
2022-11-01T05:38:21.229Z,98274.17
2022-11-01T05:40:48.742Z,98274.55
2022-11-01T05:43:16.081Z,98275.16
2022-11-01T05:45:43.721Z,98281.47
2022-11-01T05:48:11.601Z,98281.47
2022-11-01T05:50:39.534Z,98283.91
2022-11-01T05:53:08.366Z,98287.74
2022-11-01T05:55:37.252Z,98292.69
2022-11-01T05:58:08.466Z,98293.16
2022-11-01T06:00:36.715Z,98304.52
2022-11-01T06:03:05.790Z,98303.08
2022-11-01T06:05:34.678Z,98304.39
2022-11-01T06:08:02.643Z,98302.33
2022-11-01T06:10:31.848Z,98303.58
2022-11-01T06:12:59.803Z,98304.72
2022-11-01T06:15:27.434Z,98305.34
2022-11-01T06:17:57.764Z,98301.64
2022-11-01T06:20:31.217Z,98306.12
2022-11-01T06:23:00.089Z,98303.91
2022-11-01T06:25:27.966Z,98309.20
2022-11-01T06:27:55.504Z,98304.33
2022-11-01T06:30:23.124Z,98306.72
2022-11-01T06:32:50.698Z,98306.81
2022-11-01T06:35:18.382Z,98306.30
2022-11-01T06:37:46.818Z,98312.62
2022-11-01T06:40:14.822Z,98314.21
2022-11-01T06:42:46.353Z,98316.19
2022-11-01T06:45:12.002Z,98307.80
2022-11-01T06:47:39.567Z,98321.75
2022-11-01T06:50:07.775Z,98314.97
2022-11-01T06:52:35.598Z,98318.53
2022-11-01T06:55:03.410Z,98320.54
2022-11-01T06:57:30.978Z,98321.63
2022-11-01T06:59:58.585Z,98319.77
2022-11-01T07:02:29.653Z,98316.63
2022-11-01T07:04:55.347Z,98318.98
2022-11-01T07:07:23.323Z,98322.63
2022-11-01T07:09:50.660Z,98323.23
2022-11-01T07:12:18.625Z,98323.23
2022-11-01T07:14:46.103Z,98318.80
2022-11-01T07:17:13.555Z,98323.84
2022-11-01T07:19:40.823Z,98320.02
2022-11-01T07:22:08.804Z,98319.64
2022-11-01T07:24:36.200Z,98318.41
2022-11-01T07:27:03.836Z,98321.02
2022-11-01T07:29:31.403Z,98316.56
2022-11-01T07:31:59.029Z,98316.51
2022-11-01T07:34:26.481Z,98323.16
2022-11-01T07:36:53.957Z,98320.56
2022-11-01T07:39:21.423Z,98316.91
2022-11-01T07:41:50.832Z,98310.30
2022-11-01T07:44:19.932Z,98313.42
2022-11-01T07:46:47.501Z,98310.70
2022-11-01T07:49:14.991Z,98308.23
2022-11-01T07:51:42.346Z,98306.93
2022-11-01T07:54:11.406Z,98302.30
2022-11-01T07:56:38.908Z,98298.78
2022-11-01T07:59:08.395Z,98303.13
2022-11-01T08:01:36.081Z,98305.02
2022-11-01T08:04:03.891Z,98306.52
2022-11-01T08:06:31.480Z,98304.19
2022-11-01T08:08:58.779Z,98304.51
2022-11-01T08:11:26.003Z,98303.45
2022-11-01T08:13:53.316Z,98301.50
2022-11-01T08:16:20.837Z,98301.26
2022-11-01T08:18:50.798Z,98302.56
2022-11-01T08:21:18.356Z,98305.92
2022-11-01T08:23:46.277Z,98304.92
2022-11-01T08:26:14.400Z,98299.58
2022-11-01T08:28:42.416Z,98302.47
2022-11-01T08:31:10.544Z,98303.20
2022-11-01T08:33:38.045Z,98295.48
2022-11-01T08:36:05.871Z,98295.27
2022-11-01T08:38:33.944Z,98294.09
2022-11-01T08:41:01.655Z,98290.53
2022-11-01T08:43:29.198Z,98286.63
2022-11-01T08:45:59.599Z,98290.14
2022-11-01T08:48:27.320Z,98281.98
2022-11-01T08:50:54.890Z,98285.80
2022-11-01T08:53:24.435Z,98291.91
2022-11-01T08:55:56.377Z,98290.05
2022-11-01T08:58:24.496Z,98287.77
2022-11-01T09:00:52.020Z,98284.09
2022-11-01T09:03:19.641Z,98288.16
2022-11-01T09:05:47.256Z,98292.71
2022-11-01T09:08:14.915Z,98292.08
2022-11-01T09:10:42.426Z,98288.87
2022-11-01T09:13:10.249Z,98294.97
2022-11-01T09:15:38.010Z,98285.11
2022-11-01T09:18:07.597Z,98288.96
2022-11-01T09:20:35.179Z,98286.87
2022-11-01T09:23:03.266Z,98283.92
2022-11-01T09:25:31.096Z,98284.88
2022-11-01T09:27:58.566Z,98276.41
2022-11-01T09:30:26.581Z,98278.82
2022-11-01T09:32:54.233Z,98277.13
2022-11-01T09:35:21.851Z,98268.89
2022-11-01T09:37:49.339Z,98268.50
2022-11-01T09:40:17.191Z,98266.26
2022-11-01T09:42:46.018Z,98269.27
2022-11-01T09:45:23.731Z,98271.27
2022-11-01T09:47:54.340Z,98267.98
2022-11-01T09:50:35.807Z,98271.50
2022-11-01T09:53:08.309Z,98266.22
2022-11-01T09:55:53.181Z,98269.70
2022-11-01T09:58:50.774Z,98262.41
2022-11-01T10:01:54.101Z,98264.88
2022-11-01T10:04:33.511Z,98258.70
2022-11-01T10:07:30.923Z,98254.73
2022-11-01T10:10:34.005Z,98262.85
2022-11-01T10:13:12.081Z,98259.75
2022-11-01T10:16:08.093Z,98251.84
2022-11-01T10:19:04.718Z,98245.20
2022-11-01T10:21:42.489Z,98244.23
2022-11-01T10:24:51.870Z,98235.92
2022-11-01T10:27:53.421Z,98238.77
2022-11-01T10:30:21.601Z,98233.19
2022-11-01T10:33:13.069Z,98226.13
2022-11-01T10:35:44.615Z,98222.98
2022-11-01T10:41:36.180Z,98222.14
2022-11-01T10:44:08.802Z,98225.32
2022-11-01T10:46:45.024Z,98224.27
2022-11-01T10:49:20.489Z,98213.88
2022-11-01T10:51:52.532Z,98224.00
2022-11-01T10:54:25.350Z,98213.08
2022-11-01T10:56:58.309Z,98209.06
2022-11-01T10:59:42.285Z,98206.16
2022-11-01T11:02:42.539Z,98201.95
2022-11-01T11:05:16.706Z,98199.17
2022-11-01T11:07:44.831Z,98192.31
2022-11-01T11:10:24.130Z,98193.62
2022-11-01T11:12:57.377Z,98186.80
2022-11-01T11:15:54.231Z,98179.01
2022-11-01T11:18:38.221Z,98178.79
2022-11-01T11:21:11.790Z,98172.03
2022-11-01T11:23:45.151Z,98169.63
2022-11-01T11:26:17.467Z,98167.24
2022-11-01T11:28:55.844Z,98163.38
2022-11-01T11:31:34.400Z,98164.08
2022-11-01T11:34:25.500Z,98163.42
2022-11-01T11:36:55.030Z,98160.12
2022-11-01T11:39:34.451Z,98152.52
2022-11-01T11:42:21.329Z,98156.20
2022-11-01T11:44:56.684Z,98149.62
2022-11-01T11:47:27.804Z,98147.81
2022-11-01T11:49:57.818Z,98151.71
2022-11-01T11:52:38.529Z,98146.38
2022-11-01T11:55:21.670Z,98141.95
2022-11-01T11:57:54.581Z,98137.95
2022-11-01T12:00:44.942Z,98137.38
2022-11-01T12:03:13.867Z,98139.66
2022-11-01T12:05:59.394Z,98126.49
2022-11-01T12:08:35.785Z,98127.98
2022-11-01T12:11:04.862Z,98122.65
2022-11-01T12:13:36.916Z,98125.84
2022-11-01T12:16:23.587Z,98123.55
2022-11-01T12:19:00.492Z,98118.67
2022-11-01T12:21:33.613Z,98113.23
2022-11-01T12:24:09.264Z,98111.75
2022-11-01T12:26:38.037Z,98115.38
2022-11-01T12:29:40.884Z,98116.22
2022-11-01T12:32:23.263Z,98105.63
2022-11-01T12:34:54.027Z,98099.94
2022-11-01T12:37:32.834Z,98099.48
2022-11-01T12:40:29.863Z,98097.22
2022-11-01T12:43:02.700Z,98093.78
2022-11-01T12:45:44.989Z,98094.25
2022-11-01T12:48:22.751Z,98089.14
2022-11-01T12:51:03.365Z,98098.34
2022-11-01T12:53:55.992Z,98088.89
2022-11-01T12:56:23.685Z,98091.06
2022-11-01T12:58:53.495Z,98087.33
2022-11-01T13:01:54.937Z,98076.72
2022-11-01T13:04:39.109Z,98079.92
2022-11-01T13:07:41.657Z,98075.58
2022-11-01T13:10:23.640Z,98076.48
2022-11-01T13:13:03.144Z,98079.44
2022-11-01T13:16:03.381Z,98077.97
2022-11-01T13:19:00.507Z,98080.34
2022-11-01T13:21:39.485Z,98078.30
2022-11-01T13:24:44.248Z,98073.27
2022-11-01T13:27:28.051Z,98070.28
2022-11-01T13:30:18.262Z,98068.92
2022-11-01T13:33:00.368Z,98066.38
2022-11-01T13:35:51.710Z,98061.16
2022-11-01T13:38:49.156Z,98066.62
2022-11-01T13:41:49.290Z,98059.21
2022-11-01T13:44:22.260Z,98066.15
2022-11-01T13:47:22.343Z,98052.45
2022-11-01T13:50:31.184Z,98051.97
2022-11-01T13:53:16.256Z,98053.33
2022-11-01T13:56:11.402Z,98049.45
2022-11-01T13:58:39.686Z,98048.88
2022-11-01T14:01:34.604Z,98054.12
2022-11-01T14:04:19.836Z,98054.02
2022-11-01T14:07:14.100Z,98055.48
2022-11-01T14:09:47.820Z,98049.87
2022-11-01T14:12:33.001Z,98042.14
2022-11-01T14:15:18.053Z,98034.37
2022-11-01T14:18:06.948Z,98034.61
2022-11-01T14:20:44.525Z,98023.44
2022-11-01T14:23:33.008Z,98031.63
2022-11-01T14:26:24.223Z,98027.10
2022-11-01T14:28:59.491Z,98027.36
2022-11-01T14:31:32.984Z,98022.84
2022-11-01T14:34:09.984Z,98020.58
2022-11-01T14:36:40.844Z,98021.27
2022-11-01T14:39:34.756Z,98023.33
2022-11-01T14:42:03.833Z,98030.30
2022-11-01T14:44:35.166Z,98024.48
2022-11-01T14:47:31.324Z,98019.49
2022-11-01T14:50:04.260Z,98020.54
2022-11-01T14:52:40.405Z,98015.11
2022-11-01T14:55:25.123Z,98016.16
2022-11-01T14:58:11.205Z,98017.98
2022-11-01T15:00:39.992Z,98010.83
2022-11-01T15:03:09.823Z,98011.84
2022-11-01T15:05:48.325Z,98010.05
2022-11-01T15:08:33.696Z,98003.49
2022-11-01T15:11:03.975Z,98008.37
2022-11-01T15:13:37.370Z,98003.25
2022-11-01T15:16:19.690Z,98010.08
2022-11-01T15:18:51.513Z,98003.52
2022-11-01T15:21:25.601Z,98003.83
2022-11-01T15:23:54.723Z,98011.43
2022-11-01T15:26:27.423Z,98013.03
2022-11-01T15:29:02.989Z,98009.02
2022-11-01T15:31:33.672Z,98020.58
2022-11-01T15:34:06.686Z,98015.64
2022-11-01T15:36:38.801Z,98018.77
2022-11-01T15:39:25.904Z,98012.26
2022-11-01T15:41:54.710Z,98014.92
2022-11-01T15:44:26.364Z,98017.37
2022-11-01T15:46:59.136Z,98019.68
2022-11-01T15:49:37.686Z,98023.83
2022-11-01T15:52:20.940Z,98026.14
2022-11-01T15:55:20.851Z,98021.98
2022-11-01T15:57:53.823Z,98028.27
2022-11-01T16:00:25.121Z,98022.08
2022-11-01T16:03:35.636Z,98027.72
2022-11-01T16:06:19.515Z,98017.00
2022-11-01T16:08:58.506Z,98022.83
2022-11-01T16:11:30.085Z,98025.33
2022-11-01T16:14:02.128Z,98021.89
2022-11-01T16:17:00.514Z,98028.16
2022-11-01T16:19:43.871Z,98025.29
2022-11-01T16:22:38.262Z,98028.09
2022-11-01T16:25:20.645Z,98033.15
2022-11-01T16:28:07.815Z,98033.34
2022-11-01T16:30:51.510Z,98034.32
2022-11-01T16:33:37.089Z,98027.00
2022-11-01T16:36:22.337Z,98034.05
2022-11-01T16:38:52.972Z,98039.98
2022-11-01T16:41:36.453Z,98047.52
2022-11-01T16:44:16.313Z,98037.63
2022-11-01T16:46:44.137Z,98037.20
2022-11-01T16:49:22.542Z,98040.66
2022-11-01T16:51:51.829Z,98041.41
2022-11-01T16:54:19.513Z,98042.27
2022-11-01T16:56:51.904Z,98042.05
2022-11-01T16:59:36.305Z,98043.41
2022-11-01T17:02:21.488Z,98042.45
2022-11-01T17:05:00.608Z,98043.72
2022-11-01T17:07:29.316Z,98041.81
2022-11-01T17:09:57.786Z,98036.25
2022-11-01T17:12:25.303Z,98031.69
2022-11-01T17:14:53.149Z,98032.97
2022-11-01T17:17:22.850Z,98026.42
2022-11-01T17:19:55.606Z,98034.39
2022-11-01T17:22:28.599Z,98033.98
2022-11-01T17:24:56.234Z,98031.59
2022-11-01T17:27:24.011Z,98035.48
2022-11-01T17:29:51.898Z,98039.15
2022-11-01T17:32:19.230Z,98041.95
2022-11-01T17:34:48.821Z,98033.00
2022-11-01T17:37:17.303Z,98035.80
2022-11-01T17:39:45.056Z,98031.11
2022-11-01T17:42:12.652Z,98033.41
2022-11-01T17:44:41.919Z,98037.09
2022-11-01T17:47:13.450Z,98035.11
2022-11-01T17:49:41.082Z,98041.17
2022-11-01T17:52:08.830Z,98036.38
2022-11-01T17:54:36.329Z,98037.28
2022-11-01T17:57:03.937Z,98038.31
2022-11-01T17:59:31.612Z,98037.36
2022-11-01T18:01:59.134Z,98036.63
2022-11-01T18:04:27.204Z,98039.28
2022-11-01T18:06:54.949Z,98034.02
2022-11-01T18:09:24.533Z,98041.11
2022-11-01T18:12:03.287Z,98042.80
2022-11-01T18:15:09.798Z,98036.41
2022-11-01T18:18:11.605Z,98026.19
2022-11-01T18:21:11.506Z,98031.38
2022-11-01T18:23:42.672Z,98027.08
2022-11-01T18:26:15.697Z,98028.44
2022-11-01T18:28:43.821Z,98032.73
2022-11-01T18:31:33.841Z,98033.20
2022-11-01T18:34:29.114Z,98022.84
2022-11-01T18:37:27.511Z,98026.74
2022-11-01T18:40:24.197Z,98024.36
2022-11-01T18:42:53.894Z,98021.24
2022-11-01T18:45:30.397Z,98022.03
2022-11-01T18:48:27.945Z,98020.45
2022-11-01T18:51:05.278Z,98022.37
2022-11-01T18:53:34.124Z,98027.86
2022-11-01T18:56:25.511Z,98023.86
2022-11-01T18:58:55.036Z,98026.98
2022-11-01T19:01:32.857Z,98026.02
2022-11-01T19:04:06.666Z,98029.39
2022-11-01T19:06:33.858Z,98031.15
2022-11-01T19:09:20.722Z,98033.73
2022-11-01T19:12:00.121Z,98030.95
2022-11-01T19:14:28.924Z,98029.25
2022-11-01T19:16:57.696Z,98026.77
2022-11-01T19:19:25.266Z,98032.92
2022-11-01T19:21:59.791Z,98031.39
2022-11-01T19:24:36.598Z,98034.73
2022-11-01T19:27:14.366Z,98034.40
2022-11-01T19:29:42.074Z,98033.21
2022-11-01T19:32:13.714Z,98036.03
2022-11-01T19:34:41.634Z,98026.94
2022-11-01T19:37:34.608Z,98033.80
2022-11-01T19:40:00.327Z,98030.29
2022-11-01T19:42:32.114Z,98031.84
2022-11-01T19:45:28.189Z,98031.55
2022-11-01T19:47:57.652Z,98029.66
2022-11-01T19:50:41.623Z,98031.28
2022-11-01T19:53:20.976Z,98029.39
2022-11-01T19:56:04.533Z,98031.11
2022-11-01T19:58:54.201Z,98027.27
2022-11-01T20:01:42.347Z,98034.52
2022-11-01T20:04:28.261Z,98020.70
2022-11-01T20:07:15.665Z,98025.56
2022-11-01T20:09:43.299Z,98021.16
2022-11-01T20:12:11.019Z,98021.30
2022-11-01T20:14:39.324Z,98022.49
2022-11-01T20:17:06.691Z,98025.03
2022-11-01T20:19:34.451Z,98022.70
2022-11-01T20:22:01.944Z,98029.25
2022-11-01T20:24:30.506Z,98019.73
2022-11-01T20:26:59.278Z,98014.27
2022-11-01T20:29:26.823Z,98014.17
2022-11-01T20:31:54.405Z,98021.39
2022-11-01T20:34:24.087Z,98027.98
2022-11-01T20:37:15.053Z,98027.28
2022-11-01T20:39:24.175Z,98029.72
2022-11-01T20:41:50.772Z,98026.16
2022-11-01T20:44:18.371Z,98029.10
2022-11-01T20:46:46.694Z,98031.67
2022-11-01T20:49:14.420Z,98025.81
2022-11-01T20:51:42.625Z,98017.47
2022-11-01T20:54:16.665Z,98017.55
2022-11-01T20:56:41.190Z,98015.11
2022-11-01T20:59:08.677Z,98012.14
2022-11-01T21:01:36.276Z,98012.28
2022-11-01T21:04:12.104Z,98012.20
2022-11-01T21:06:39.675Z,98014.00
2022-11-01T21:09:27.905Z,98008.23
2022-11-01T21:11:55.547Z,98009.78
2022-11-01T21:14:24.498Z,98002.73
2022-11-01T21:16:52.379Z,98011.06
2022-11-01T21:19:23.638Z,98003.45
2022-11-01T21:21:57.824Z,98004.69
2022-11-01T21:24:34.389Z,98001.13
2022-11-01T21:27:16.232Z,98004.59
2022-11-01T21:29:47.338Z,97997.18
2022-11-01T21:32:31.866Z,97998.00
2022-11-01T21:34:59.381Z,97996.09
2022-11-01T21:37:29.596Z,97998.49
2022-11-01T21:40:05.725Z,98000.86
2022-11-01T21:42:35.519Z,98000.48
2022-11-01T21:45:32.044Z,97999.48
2022-11-01T21:48:17.119Z,97994.20
2022-11-01T21:50:44.582Z,97996.28
2022-11-01T21:53:12.213Z,97996.25
2022-11-01T21:55:39.752Z,97991.08
2022-11-01T21:58:07.245Z,97993.98
2022-11-01T22:00:35.007Z,97987.70
2022-11-01T22:03:02.977Z,97988.64
2022-11-01T22:05:31.025Z,97993.91
2022-11-01T22:07:58.508Z,97992.05
2022-11-01T22:10:25.995Z,97989.11
2022-11-01T22:12:53.666Z,97986.41
2022-11-01T22:15:21.295Z,97989.34
2022-11-01T22:17:48.575Z,97985.81
2022-11-01T22:20:16.172Z,97993.67
2022-11-01T22:22:43.524Z,97985.92
2022-11-01T22:25:10.943Z,97981.95
2022-11-01T22:27:39.025Z,97987.17
2022-11-01T22:30:08.540Z,97985.42
2022-11-01T22:32:36.512Z,97986.91
2022-11-01T22:35:05.459Z,97988.98
2022-11-01T22:37:35.419Z,97987.78
2022-11-01T22:40:12.106Z,97990.58
2022-11-01T22:42:40.689Z,97996.08
2022-11-01T22:45:14.793Z,97993.96
2022-11-01T22:47:42.863Z,97989.15
2022-11-01T22:50:18.204Z,97992.16
2022-11-01T22:52:47.982Z,97987.94
2022-11-01T22:55:23.294Z,97989.41
2022-11-01T22:58:14.759Z,97985.52
2022-11-01T23:00:45.673Z,97982.14
2022-11-01T23:03:21.481Z,97985.23
2022-11-01T23:05:54.844Z,97987.72
2022-11-01T23:08:32.536Z,97985.05
2022-11-01T23:11:01.227Z,97982.11
2022-11-01T23:13:55.322Z,97985.08
2022-11-01T23:16:29.355Z,97980.55
2022-11-01T23:19:00.761Z,97973.28
2022-11-01T23:21:28.596Z,97973.56
2022-11-01T23:23:56.208Z,97964.61
2022-11-01T23:26:24.618Z,97966.42
2022-11-01T23:28:54.867Z,97966.05
2022-11-01T23:31:25.905Z,97970.25
2022-11-01T23:33:54.045Z,97967.73
2022-11-01T23:36:32.897Z,97963.59
2022-11-01T23:39:11.158Z,97966.20
2022-11-01T23:41:49.326Z,97968.28
2022-11-01T23:44:32.193Z,97963.83
2022-11-01T23:47:11.054Z,97976.52
2022-11-01T23:49:38.699Z,97969.47
2022-11-01T23:52:26.961Z,97965.14
2022-11-01T23:54:54.275Z,97970.27
2022-11-01T23:57:22.074Z,97965.73
2022-11-01T23:59:50.858Z,97967.08
